createdAt,value
2019-01-09T00:01:30.720Z,1.47
2019-01-09T00:03:59.803Z,1.40
2019-01-09T00:06:28.837Z,1.50
2019-01-09T00:08:57.918Z,1.70
2019-01-09T00:11:27.257Z,1.87
2019-01-09T00:13:56.280Z,2.30
2019-01-09T00:16:25.366Z,1.50
2019-01-09T00:18:54.430Z,1.40
2019-01-09T00:21:23.493Z,1.60
2019-01-09T00:23:52.467Z,1.30
2019-01-09T00:26:21.586Z,1.40
2019-01-09T00:28:50.678Z,1.20
2019-01-09T00:31:20.238Z,1.40
2019-01-09T00:33:49.598Z,1.37
2019-01-09T00:36:18.639Z,1.50
2019-01-09T00:38:47.644Z,1.73
2019-01-09T00:41:16.763Z,2.13
2019-01-09T00:43:45.839Z,1.90
2019-01-09T00:46:15.195Z,1.37
2019-01-09T00:48:44.510Z,1.40
2019-01-09T00:51:13.548Z,2.10
2019-01-09T00:53:42.871Z,1.73
2019-01-09T00:56:12.024Z,1.50
2019-01-09T00:58:41.931Z,1.00
2019-01-09T01:01:11.021Z,1.20
2019-01-09T01:04:14.020Z,1.10
2019-01-09T01:07:10.345Z,1.23
2019-01-09T01:10:25.866Z,1.30
2019-01-09T01:14:03.262Z,1.30
2019-01-09T01:17:16.953Z,1.40
2019-01-09T01:20:17.930Z,1.03
2019-01-09T01:23:31.134Z,1.47
2019-01-09T01:26:29.165Z,1.00
2019-01-09T01:29:22.085Z,1.80
2019-01-09T01:32:14.905Z,1.30
2019-01-09T01:35:36.566Z,1.53
2019-01-09T01:38:56.202Z,1.03
2019-01-09T01:41:33.713Z,1.07
2019-01-09T01:44:19.281Z,1.23
2019-01-09T01:47:31.427Z,1.03
2019-01-09T01:50:27.063Z,1.70
2019-01-09T01:53:22.284Z,0.93
2019-01-09T01:56:28.409Z,0.80
2019-01-09T01:59:18.405Z,0.90
2019-01-09T02:02:19.000Z,1.00
2019-01-09T02:05:29.250Z,1.00
2019-01-09T02:08:30.197Z,1.00
2019-01-09T02:11:26.399Z,1.10
2019-01-09T02:14:25.523Z,1.00
2019-01-09T02:17:27.434Z,0.80
2019-01-09T02:20:07.019Z,0.80
2019-01-09T02:23:04.413Z,1.10
2019-01-09T02:25:44.926Z,0.90
2019-01-09T02:28:49.365Z,1.00
2019-01-09T02:31:44.508Z,1.00
2019-01-09T02:34:13.763Z,1.43
2019-01-09T02:36:42.761Z,0.90
2019-01-09T02:39:12.023Z,0.80
2019-01-09T02:41:40.951Z,0.90
2019-01-09T02:44:09.958Z,0.80
2019-01-09T02:46:38.966Z,0.80
2019-01-09T02:49:07.860Z,0.60
2019-01-09T02:51:36.847Z,1.00
2019-01-09T02:54:05.803Z,0.80
2019-01-09T02:56:34.827Z,0.93
2019-01-09T02:59:03.799Z,0.70
2019-01-09T03:01:32.793Z,0.77
2019-01-09T03:04:01.730Z,0.73
2019-01-09T03:06:30.642Z,0.73
2019-01-09T03:08:59.635Z,0.80
2019-01-09T03:11:28.643Z,0.80
2019-01-09T03:13:57.998Z,0.80
2019-01-09T03:16:27.024Z,0.80
2019-01-09T03:18:56.062Z,0.80
2019-01-09T03:21:25.173Z,0.77
2019-01-09T03:23:54.102Z,0.73
2019-01-09T03:26:23.413Z,0.70
2019-01-09T03:28:52.419Z,0.90
2019-01-09T03:31:21.606Z,0.80
2019-01-09T03:33:50.870Z,0.70
2019-01-09T03:36:19.896Z,0.70
2019-01-09T03:38:48.854Z,0.70
2019-01-09T03:41:17.936Z,0.80
2019-01-09T03:43:47.017Z,0.80
2019-01-09T03:46:16.105Z,0.80
2019-01-09T03:48:45.094Z,0.70
2019-01-09T03:51:14.053Z,0.90
2019-01-09T03:53:43.014Z,0.70
2019-01-09T03:56:11.949Z,0.70
2019-01-09T03:58:40.884Z,0.80
2019-01-09T04:01:10.157Z,0.80
2019-01-09T04:03:39.090Z,0.80
2019-01-09T04:06:08.105Z,0.90
2019-01-09T04:08:37.361Z,0.93
2019-01-09T04:11:06.402Z,0.90
2019-01-09T04:13:35.387Z,0.63
2019-01-09T04:16:04.576Z,0.90
2019-01-09T04:18:33.518Z,0.73
2019-01-09T04:21:02.530Z,1.00
2019-01-09T04:23:31.480Z,0.83
2019-01-09T04:26:00.327Z,1.10
2019-01-09T04:28:29.230Z,1.17
2019-01-09T04:30:58.248Z,0.87
2019-01-09T04:33:27.138Z,0.90
2019-01-09T04:35:56.087Z,1.00
2019-01-09T04:38:25.045Z,1.33
2019-01-09T04:40:54.038Z,1.30
2019-01-09T04:43:22.945Z,2.27
2019-01-09T04:45:51.943Z,0.90
2019-01-09T04:48:21.157Z,1.37
2019-01-09T04:50:50.094Z,1.30
2019-01-09T04:53:19.043Z,1.00
2019-01-09T04:55:47.971Z,1.10
2019-01-09T04:58:16.926Z,1.10
2019-01-09T05:00:45.925Z,1.10
2019-01-09T05:03:14.942Z,0.93
2019-01-09T05:05:43.803Z,1.20
2019-01-09T05:08:12.831Z,1.40
2019-01-09T05:10:41.766Z,1.33
2019-01-09T05:13:10.716Z,1.43
2019-01-09T05:15:39.710Z,1.20
2019-01-09T05:18:08.830Z,1.00
2019-01-09T05:20:37.746Z,1.10
2019-01-09T05:23:06.642Z,1.63
2019-01-09T05:25:35.586Z,1.20
2019-01-09T05:28:04.544Z,1.33
2019-01-09T05:30:33.511Z,2.00
2019-01-09T05:33:02.463Z,1.90
2019-01-09T05:35:31.383Z,1.27
2019-01-09T05:38:00.382Z,1.10
2019-01-09T05:40:29.245Z,1.30
2019-01-09T05:42:58.194Z,2.00
2019-01-09T05:45:27.114Z,1.13
2019-01-09T05:47:56.057Z,1.47
2019-01-09T05:50:24.996Z,1.00
2019-01-09T05:52:54.085Z,1.80
2019-01-09T05:55:23.091Z,1.20
2019-01-09T05:57:52.038Z,1.03
2019-01-09T06:00:20.982Z,0.80
2019-01-09T06:02:50.215Z,1.10
2019-01-09T06:05:19.470Z,1.07
2019-01-09T06:07:48.424Z,0.90
2019-01-09T06:10:17.350Z,1.00
2019-01-09T06:12:46.222Z,1.00
2019-01-09T06:15:17.714Z,0.97
2019-01-09T06:17:46.658Z,1.20
2019-01-09T06:20:15.930Z,1.00
2019-01-09T06:22:44.830Z,1.00
2019-01-09T06:25:13.751Z,1.20
2019-01-09T06:27:42.666Z,1.03
2019-01-09T06:30:11.710Z,1.00
2019-01-09T06:32:40.674Z,1.60
2019-01-09T06:35:09.770Z,1.53
2019-01-09T06:37:38.739Z,1.17
2019-01-09T06:40:08.188Z,1.80
2019-01-09T06:42:37.185Z,1.93
2019-01-09T06:45:06.530Z,1.27
2019-01-09T06:47:35.426Z,1.10
2019-01-09T06:50:07.479Z,1.70
2019-01-09T06:52:36.658Z,1.07
2019-01-09T06:55:05.735Z,1.40
2019-01-09T06:57:34.691Z,1.30
2019-01-09T07:00:03.999Z,1.53
2019-01-09T07:02:32.955Z,1.10
2019-01-09T07:05:02.182Z,1.10
2019-01-09T07:07:35.968Z,1.57
2019-01-09T07:10:01.798Z,1.33
2019-01-09T07:12:30.718Z,1.67
2019-01-09T07:14:59.765Z,1.33
2019-01-09T07:17:28.686Z,1.97
2019-01-09T07:19:57.721Z,1.40
2019-01-09T07:22:26.654Z,1.20
2019-01-09T07:24:55.590Z,1.83
2019-01-09T07:27:24.774Z,1.77
2019-01-09T07:29:53.823Z,1.63
2019-01-09T07:32:22.662Z,1.37
2019-01-09T07:34:51.678Z,1.80
2019-01-09T07:37:20.633Z,1.30
2019-01-09T07:39:49.918Z,1.10
2019-01-09T07:42:19.077Z,1.30
2019-01-09T07:44:48.275Z,1.40
2019-01-09T07:47:17.193Z,1.20
2019-01-09T07:49:46.223Z,1.23
2019-01-09T07:52:15.265Z,1.40
2019-01-09T07:54:44.284Z,1.00
2019-01-09T07:57:13.246Z,1.10
2019-01-09T07:59:42.263Z,1.40
2019-01-09T08:02:11.275Z,1.40
2019-01-09T08:04:40.226Z,1.10
2019-01-09T08:07:09.304Z,1.30
2019-01-09T08:09:38.285Z,1.03
2019-01-09T08:12:07.581Z,1.20
2019-01-09T08:14:36.457Z,1.20
2019-01-09T08:17:05.809Z,1.27
2019-01-09T08:19:34.711Z,0.90
2019-01-09T08:22:03.817Z,1.20
2019-01-09T08:24:33.040Z,1.10
2019-01-09T08:27:02.004Z,1.20
2019-01-09T08:29:31.190Z,1.10
2019-01-09T08:32:00.119Z,1.07
2019-01-09T08:34:29.050Z,0.80
2019-01-09T08:36:57.935Z,1.10
2019-01-09T08:39:26.988Z,1.07
2019-01-09T08:41:57.101Z,1.10
2019-01-09T08:44:26.044Z,1.10
2019-01-09T08:46:55.253Z,1.10
2019-01-09T08:49:24.144Z,1.00
2019-01-09T08:51:53.253Z,1.10
2019-01-09T08:54:22.102Z,1.20
2019-01-09T08:56:51.043Z,1.00
2019-01-09T08:59:19.988Z,1.43
2019-01-09T09:01:48.949Z,1.30
2019-01-09T09:04:17.931Z,1.10
2019-01-09T09:06:47.012Z,1.00
2019-01-09T09:09:17.680Z,1.10
2019-01-09T09:11:46.821Z,1.73
2019-01-09T09:14:15.726Z,1.00
2019-01-09T09:16:44.701Z,1.10
2019-01-09T09:19:15.777Z,0.90
2019-01-09T09:21:44.494Z,1.00
2019-01-09T09:24:13.515Z,1.00
2019-01-09T09:26:42.593Z,0.83
2019-01-09T09:29:11.705Z,1.60
2019-01-09T09:31:40.966Z,2.10
2019-01-09T09:34:09.873Z,1.20
2019-01-09T09:36:38.779Z,0.77
2019-01-09T09:39:10.020Z,1.20
2019-01-09T09:41:39.043Z,1.30
2019-01-09T09:44:07.969Z,0.93
2019-01-09T09:46:37.016Z,1.00
2019-01-09T09:49:06.038Z,1.00
2019-01-09T09:51:35.057Z,0.80
2019-01-09T09:54:04.126Z,1.03
2019-01-09T09:56:33.370Z,0.70
2019-01-09T09:59:02.359Z,1.10
2019-01-09T10:01:31.666Z,1.00
2019-01-09T10:04:00.640Z,1.17
2019-01-09T10:06:29.578Z,1.40
2019-01-09T10:08:58.520Z,1.80
2019-01-09T10:11:27.528Z,1.00
2019-01-09T10:13:56.481Z,1.00
2019-01-09T10:16:25.842Z,1.07
2019-01-09T10:18:54.799Z,0.90
2019-01-09T10:21:23.766Z,1.10
2019-01-09T10:23:52.706Z,1.00
2019-01-09T10:26:22.165Z,0.90
2019-01-09T10:28:51.010Z,1.10
2019-01-09T10:31:19.890Z,0.90
2019-01-09T10:33:48.775Z,0.80
2019-01-09T10:36:17.804Z,0.90
2019-01-09T10:38:47.061Z,1.00
2019-01-09T10:41:16.090Z,1.10
2019-01-09T10:43:45.131Z,1.00
2019-01-09T10:46:14.650Z,1.63
2019-01-09T10:48:43.593Z,1.10
2019-01-09T10:51:12.643Z,1.20
2019-01-09T10:53:41.631Z,0.90
2019-01-09T10:56:10.868Z,1.00
2019-01-09T10:58:39.865Z,1.10
2019-01-09T11:01:08.849Z,1.10
2019-01-09T11:03:38.033Z,1.20
2019-01-09T11:06:07.351Z,1.00
2019-01-09T11:08:36.290Z,1.30
2019-01-09T11:11:05.511Z,1.30
2019-01-09T11:13:34.470Z,1.00
2019-01-09T11:16:03.529Z,1.30
2019-01-09T11:18:32.659Z,1.00
2019-01-09T11:21:03.538Z,1.10
2019-01-09T11:23:32.190Z,1.00
2019-01-09T11:26:01.049Z,1.10
2019-01-09T11:28:29.988Z,1.00
2019-01-09T11:30:58.930Z,1.20
2019-01-09T11:33:27.877Z,0.90
2019-01-09T11:35:56.885Z,0.90
2019-01-09T11:38:25.845Z,1.10
2019-01-09T11:40:54.840Z,1.00
2019-01-09T11:43:23.790Z,0.90
2019-01-09T11:45:52.781Z,0.90
2019-01-09T11:48:21.737Z,1.07
2019-01-09T11:50:50.910Z,1.00
2019-01-09T11:53:20.114Z,1.10
2019-01-09T11:55:49.034Z,1.10
2019-01-09T11:58:17.984Z,1.13
2019-01-09T12:00:46.988Z,1.20
2019-01-09T12:03:16.111Z,0.80
2019-01-09T12:05:45.102Z,0.80
2019-01-09T12:08:14.025Z,1.00
2019-01-09T12:10:42.961Z,0.90
2019-01-09T12:13:12.069Z,1.00
2019-01-09T12:15:41.135Z,0.90
2019-01-09T12:18:10.443Z,0.90
2019-01-09T12:20:39.618Z,1.00
2019-01-09T12:23:08.722Z,0.97
2019-01-09T12:25:37.577Z,0.93
2019-01-09T12:28:07.100Z,0.90
2019-01-09T12:30:36.006Z,0.90
2019-01-09T12:33:05.139Z,1.00
2019-01-09T12:35:34.119Z,1.30
2019-01-09T12:38:03.106Z,1.20
2019-01-09T12:40:32.017Z,1.20
2019-01-09T12:43:00.979Z,0.90
2019-01-09T12:45:29.911Z,1.17
2019-01-09T12:47:58.974Z,1.50
2019-01-09T12:50:27.976Z,2.13
2019-01-09T12:52:56.946Z,1.10
2019-01-09T12:55:25.986Z,1.13
2019-01-09T12:57:54.961Z,1.20
2019-01-09T13:00:26.557Z,1.20
2019-01-09T13:02:55.825Z,1.00
2019-01-09T13:05:25.281Z,3.30
2019-01-09T13:07:54.627Z,1.30
2019-01-09T13:10:23.726Z,1.40
2019-01-09T13:12:52.982Z,1.10
2019-01-09T13:15:22.112Z,1.20
2019-01-09T13:17:51.040Z,1.20
2019-01-09T13:20:19.996Z,1.10
2019-01-09T13:22:48.983Z,1.10
2019-01-09T13:25:18.089Z,0.90
2019-01-09T13:27:48.761Z,1.20
2019-01-09T13:30:20.399Z,1.20
2019-01-09T13:32:49.405Z,1.07
2019-01-09T13:35:18.605Z,0.97
2019-01-09T13:37:47.754Z,1.00
2019-01-09T13:40:18.377Z,1.20
2019-01-09T13:42:47.474Z,1.30
2019-01-09T13:45:18.143Z,1.10
2019-01-09T13:47:47.566Z,1.10
2019-01-09T13:50:16.844Z,0.90
2019-01-09T13:52:45.919Z,1.60
2019-01-09T13:55:15.508Z,0.90
2019-01-09T13:57:44.582Z,1.00
2019-01-09T14:00:18.291Z,1.20
2019-01-09T14:02:47.627Z,1.00
2019-01-09T14:05:16.847Z,1.20
2019-01-09T14:07:46.071Z,1.43
2019-01-09T14:10:17.346Z,1.23
2019-01-09T14:12:46.498Z,1.20
2019-01-09T14:15:17.474Z,1.30
2019-01-09T14:17:46.495Z,1.60
2019-01-09T14:20:15.634Z,1.40
2019-01-09T14:22:46.599Z,1.10
2019-01-09T14:25:15.584Z,1.20
2019-01-09T14:27:44.684Z,1.27
2019-01-09T14:30:17.057Z,1.30
2019-01-09T14:32:46.229Z,3.20
2019-01-09T14:35:15.177Z,1.40
2019-01-09T14:37:44.288Z,1.57
2019-01-09T14:40:14.533Z,1.40
2019-01-09T14:42:43.662Z,1.00
2019-01-09T14:45:13.554Z,1.00
2019-01-09T14:47:42.734Z,1.10
2019-01-09T14:50:15.205Z,1.30
2019-01-09T14:52:44.474Z,0.97
2019-01-09T14:55:13.569Z,1.10
2019-01-09T14:57:42.565Z,1.10
2019-01-09T15:00:14.801Z,1.50
2019-01-09T15:02:43.945Z,1.20
2019-01-09T15:05:13.098Z,1.20
2019-01-09T15:07:41.947Z,0.93
2019-01-09T15:10:13.838Z,1.30
2019-01-09T15:12:43.159Z,1.20
2019-01-09T15:15:13.805Z,1.40
2019-01-09T15:17:42.694Z,1.10
2019-01-09T15:20:13.373Z,1.40
2019-01-09T15:22:42.298Z,1.80
2019-01-09T15:25:11.567Z,1.73
2019-01-09T15:27:40.550Z,1.43
2019-01-09T15:30:16.153Z,1.77
2019-01-09T15:32:44.999Z,1.80
2019-01-09T15:35:14.577Z,1.70
2019-01-09T15:37:43.738Z,1.83
2019-01-09T15:40:15.628Z,1.50
2019-01-09T15:42:44.983Z,1.83
2019-01-09T15:45:14.740Z,2.10
2019-01-09T15:47:43.777Z,3.53
2019-01-09T15:50:14.886Z,2.83
2019-01-09T15:52:43.833Z,2.67
2019-01-09T15:55:13.570Z,1.80
2019-01-09T15:57:42.898Z,3.37
2019-01-09T16:00:15.699Z,2.07
2019-01-09T16:02:44.702Z,2.10
2019-01-09T16:05:13.835Z,1.77
2019-01-09T16:07:45.211Z,1.50
2019-01-09T16:10:14.921Z,1.67
2019-01-09T16:12:43.983Z,1.90
2019-01-09T16:15:15.290Z,1.70
2019-01-09T16:17:44.539Z,1.60
2019-01-09T16:20:16.756Z,1.60
2019-01-09T16:22:45.583Z,1.63
2019-01-09T16:25:15.847Z,1.50
2019-01-09T16:27:44.923Z,1.73
2019-01-09T16:30:58.238Z,1.90
2019-01-09T16:33:27.174Z,1.90
2019-01-09T16:35:56.141Z,1.53
2019-01-09T16:38:25.148Z,1.90
2019-01-09T16:40:54.481Z,1.80
2019-01-09T16:43:23.454Z,2.13
2019-01-09T16:45:52.539Z,1.87
2019-01-09T16:48:21.462Z,1.83
2019-01-09T16:50:50.797Z,1.90
2019-01-09T16:53:19.919Z,1.70
2019-01-09T16:55:48.835Z,1.70
2019-01-09T16:58:17.791Z,2.10
2019-01-09T17:00:46.874Z,1.60
2019-01-09T17:03:16.084Z,1.80
2019-01-09T17:05:44.998Z,2.10
2019-01-09T17:08:14.329Z,1.80
2019-01-09T17:10:43.247Z,1.90
2019-01-09T17:13:16.054Z,2.30
2019-01-09T17:15:45.265Z,2.63
2019-01-09T17:18:14.209Z,2.30
2019-01-09T17:20:43.251Z,2.03
2019-01-09T17:23:12.194Z,2.20
2019-01-09T17:25:41.441Z,2.10
2019-01-09T17:28:10.835Z,2.20
2019-01-09T17:30:39.769Z,2.30
2019-01-09T17:33:09.047Z,2.40
2019-01-09T17:35:38.039Z,2.37
2019-01-09T17:38:07.161Z,2.70
2019-01-09T17:40:41.234Z,2.00
2019-01-09T17:43:07.377Z,2.33
2019-01-09T17:45:36.558Z,2.43
2019-01-09T17:48:06.182Z,2.30
2019-01-09T17:50:36.383Z,2.50
2019-01-09T17:53:05.902Z,1.90
2019-01-09T17:55:34.899Z,3.83
2019-01-09T17:58:04.001Z,2.47
2019-01-09T18:00:35.617Z,2.40
2019-01-09T18:03:04.847Z,2.73
2019-01-09T18:05:33.974Z,2.73
2019-01-09T18:08:10.462Z,2.77
2019-01-09T18:10:33.663Z,2.47
2019-01-09T18:13:02.580Z,2.93
2019-01-09T18:15:31.593Z,3.03
2019-01-09T18:18:00.613Z,3.37
2019-01-09T18:20:29.857Z,3.23
2019-01-09T18:22:58.794Z,3.63
2019-01-09T18:25:29.570Z,3.60
2019-01-09T18:27:58.708Z,4.03
2019-01-09T18:30:46.196Z,4.13
2019-01-09T18:33:39.126Z,4.00
2019-01-09T18:36:45.894Z,3.90
2019-01-09T18:39:56.298Z,4.30
2019-01-09T18:43:27.913Z,4.50
2019-01-09T18:46:22.509Z,4.30
2019-01-09T18:49:25.730Z,4.07
2019-01-09T18:52:23.409Z,3.60
2019-01-09T18:54:52.398Z,3.97
2019-01-09T18:57:21.675Z,4.00
2019-01-09T18:59:50.879Z,4.10
2019-01-09T19:02:19.934Z,4.10
2019-01-09T19:04:50.122Z,3.93
2019-01-09T19:07:19.236Z,4.20
2019-01-09T19:09:48.271Z,4.10
2019-01-09T19:12:17.366Z,4.30
2019-01-09T19:14:46.384Z,5.10
2019-01-09T19:17:15.749Z,5.60
2019-01-09T19:19:47.590Z,4.70
2019-01-09T19:22:16.538Z,5.20
2019-01-09T19:24:45.561Z,5.53
2019-01-09T19:27:14.478Z,6.03
2019-01-09T19:29:43.486Z,5.47
2019-01-09T19:32:12.545Z,6.27
2019-01-09T19:34:41.489Z,6.43
2019-01-09T19:37:10.765Z,6.97
2019-01-09T19:39:39.793Z,6.77
2019-01-09T19:42:08.968Z,7.43
2019-01-09T19:44:37.985Z,7.03
2019-01-09T19:47:07.174Z,5.43
2019-01-09T19:49:36.201Z,5.30
2019-01-09T19:52:05.745Z,5.13
2019-01-09T19:54:34.618Z,4.90
2019-01-09T19:57:03.926Z,5.30
2019-01-09T19:59:32.958Z,4.13
2019-01-09T20:02:02.019Z,4.67
2019-01-09T20:04:31.038Z,5.13
2019-01-09T20:06:59.990Z,5.00
2019-01-09T20:09:29.307Z,4.83
2019-01-09T20:11:58.615Z,4.30
2019-01-09T20:14:29.078Z,4.53
2019-01-09T20:16:58.214Z,4.57
2019-01-09T20:19:27.246Z,4.50
2019-01-09T20:21:56.223Z,4.33
2019-01-09T20:24:25.476Z,4.50
2019-01-09T20:26:54.693Z,5.00
2019-01-09T20:29:23.889Z,5.60
2019-01-09T20:31:52.970Z,5.47
2019-01-09T20:34:21.903Z,5.80
2019-01-09T20:36:50.956Z,5.73
2019-01-09T20:39:19.942Z,5.27
2019-01-09T20:41:48.901Z,5.60
2019-01-09T20:44:18.229Z,6.87
2019-01-09T20:46:47.605Z,5.87
2019-01-09T20:49:16.994Z,5.50
2019-01-09T20:51:46.079Z,5.30
2019-01-09T20:54:15.126Z,5.23
2019-01-09T20:56:44.699Z,4.77
2019-01-09T20:59:13.785Z,5.47
2019-01-09T21:01:42.827Z,5.37
2019-01-09T21:04:11.849Z,5.63
2019-01-09T21:06:41.233Z,5.57
2019-01-09T21:09:10.207Z,5.07
2019-01-09T21:11:44.094Z,5.27
2019-01-09T21:14:09.836Z,4.97
2019-01-09T21:16:38.802Z,5.20
2019-01-09T21:19:07.850Z,5.50
2019-01-09T21:21:36.870Z,4.63
2019-01-09T21:24:06.035Z,4.37
2019-01-09T21:26:35.150Z,4.63
2019-01-09T21:29:04.421Z,4.57
2019-01-09T21:31:33.351Z,4.30
2019-01-09T21:34:02.460Z,4.80
2019-01-09T21:36:31.371Z,3.80
2019-01-09T21:39:00.330Z,3.87
2019-01-09T21:41:29.573Z,4.30
2019-01-09T21:43:58.444Z,3.77
2019-01-09T21:46:27.461Z,3.87
2019-01-09T21:48:56.488Z,3.97
2019-01-09T21:51:25.665Z,3.60
2019-01-09T21:53:54.684Z,3.63
2019-01-09T21:56:23.845Z,2.87
2019-01-09T21:58:52.848Z,3.37
2019-01-09T22:01:21.911Z,3.77
2019-01-09T22:03:51.109Z,3.27
2019-01-09T22:06:20.319Z,3.87
2019-01-09T22:08:49.266Z,4.23
2019-01-09T22:11:18.502Z,4.97
2019-01-09T22:13:47.690Z,4.67
2019-01-09T22:16:16.699Z,3.60
2019-01-09T22:18:45.721Z,3.37
2019-01-09T22:21:14.758Z,2.93
2019-01-09T22:23:43.630Z,2.53
2019-01-09T22:26:12.634Z,2.20
2019-01-09T22:28:41.578Z,2.07
2019-01-09T22:31:10.589Z,1.90
2019-01-09T22:33:39.598Z,1.77
2019-01-09T22:36:08.561Z,2.30
2019-01-09T22:38:37.583Z,1.93
2019-01-09T22:41:06.779Z,2.20
2019-01-09T22:43:36.124Z,2.10
2019-01-09T22:46:05.303Z,1.93
2019-01-09T22:48:36.252Z,2.17
2019-01-09T22:51:05.030Z,2.00
2019-01-09T22:53:34.046Z,2.07
2019-01-09T22:56:03.097Z,1.70
2019-01-09T22:58:32.114Z,2.00
2019-01-09T23:01:11.902Z,2.10
2019-01-09T23:03:43.697Z,2.00
2019-01-09T23:06:12.795Z,1.90
2019-01-09T23:08:41.817Z,2.03
2019-01-09T23:11:10.819Z,1.93
2019-01-09T23:13:39.853Z,2.10
2019-01-09T23:16:10.419Z,1.60
2019-01-09T23:18:39.558Z,1.57
2019-01-09T23:21:08.480Z,1.90
2019-01-09T23:23:37.416Z,1.93
2019-01-09T23:26:06.850Z,2.03
2019-01-09T23:28:35.834Z,1.90
2019-01-09T23:31:05.240Z,1.90
2019-01-09T23:33:34.305Z,2.13
2019-01-09T23:36:03.665Z,2.73
2019-01-09T23:38:32.656Z,2.50
2019-01-09T23:41:01.767Z,2.23
2019-01-09T23:43:30.755Z,2.40
2019-01-09T23:45:59.860Z,2.43
2019-01-09T23:48:28.834Z,2.70
2019-01-09T23:50:57.774Z,2.53
2019-01-09T23:53:26.690Z,2.90
2019-01-09T23:55:55.716Z,2.40
2019-01-09T23:58:24.669Z,2.23
